Time;durP1;ratioP1;P1;durP2;ratioP2;P2;SDS_P1;SDS_P2;PMS_P1;PMS_P2;Temp;Humidity;BMP_temperature;BMP_pressure;BME280_temperature;BME280_humidity;BME280_pressure;Samples;Min_cycle;Max_cycle;Signal;HPM_P1;HPM_P2
2022/08/22 00:00:51;;;;;;;7.80;7.00;;;;;;;17.48;82.05;100120.41;84679;1329;24914;-70
2022/08/22 00:03:17;;;;;;;7.90;6.90;;;;;;;17.49;82.16;100121.09;84691;1329;24325;-70
2022/08/22 00:05:32;;;;;;;8.60;6.70;;;;;;;17.48;82.13;100119.75;84683;1325;25313;-70
2022/08/22 00:07:46;;;;;;;8.70;7.90;;;;;;;17.48;82.27;100116.33;84666;1330;25440;-70
2022/08/22 00:10:01;;;;;;;9.40;7.30;;;;;;;17.49;82.43;100117.02;84667;1325;22591;-70
2022/08/22 00:12:21;;;;;;;7.90;7.10;;;;;;;17.50;82.53;100119.41;84686;1329;23943;-70
2022/08/22 00:14:40;;;;;;;13.70;8.00;;;;;;;17.51;82.34;100120.92;84718;1328;22762;-70
2022/08/22 00:16:56;;;;;;;8.10;7.30;;;;;;;17.50;82.37;100123.10;84704;1330;24356;-70
2022/08/22 00:19:12;;;;;;;8.90;7.40;;;;;;;17.50;82.46;100124.71;84675;1330;23856;-70
2022/08/22 00:21:24;;;;;;;7.60;6.90;;;;;;;17.49;82.53;100128.30;84689;1330;25457;-71
2022/08/22 00:23:34;;;;;;;8.50;7.30;;;;;;;17.47;82.49;100128.39;84734;1331;23984;-70
2022/08/22 00:25:50;;;;;;;8.60;7.80;;;;;;;17.47;82.53;100126.84;84683;1330;23961;-70
2022/08/22 00:28:02;;;;;;;10.60;7.50;;;;;;;17.47;82.67;100133.52;84691;1330;22710;-70
2022/08/22 00:30:15;;;;;;;9.00;7.60;;;;;;;17.46;82.60;100132.54;84715;1330;24392;-71
2022/08/22 00:32:29;;;;;;;8.60;7.80;;;;;;;17.45;82.51;100139.13;84674;1330;25608;-71
2022/08/22 00:34:40;;;;;;;8.90;8.00;;;;;;;17.45;82.45;100139.89;84699;1330;22610;-70
2022/08/22 00:37:07;;;;;;;8.60;7.70;;;;;;;17.41;82.56;100139.41;84692;1331;23908;-70
2022/08/22 00:39:20;;;;;;;8.00;7.30;;;;;;;17.38;82.64;100137.52;84687;1327;23880;-71
2022/08/22 00:41:44;;;;;;;9.10;8.00;;;;;;;17.36;82.53;100135.77;84676;1329;22744;-71
2022/08/22 00:44:21;;;;;;;12.70;8.50;;;;;;;17.33;82.61;100134.58;84692;1320;22754;-70
2022/08/22 00:46:55;;;;;;;8.80;7.90;;;;;;;17.30;82.83;100137.04;84678;1329;22591;-70
2022/08/22 00:49:32;;;;;;;9.00;7.80;;;;;;;17.28;83.11;100132.40;84701;1329;22580;-71
2022/08/22 00:52:15;;;;;;;9.60;8.70;;;;;;;17.27;83.23;100134.77;84697;1332;22591;-72
2022/08/22 00:54:33;;;;;;;10.00;8.10;;;;;;;17.25;83.27;100134.71;84700;1332;25434;-71
2022/08/22 00:57:06;;;;;;;10.00;8.70;;;;;;;17.24;83.41;100134.11;84659;1329;22599;-71
2022/08/22 00:59:42;;;;;;;9.00;7.90;;;;;;;17.22;83.45;100134.89;84704;1331;25500;-71
2022/08/22 01:01:57;;;;;;;10.90;8.50;;;;;;;17.22;83.54;100137.92;84680;1332;25448;-71
2022/08/22 01:04:32;;;;;;;9.80;8.10;;;;;;;17.22;83.57;100144.13;84731;1321;22934;-71
2022/08/22 01:06:45;;;;;;;9.90;8.90;;;;;;;17.23;83.77;100141.77;84682;1330;22746;-71
2022/08/22 01:09:04;;;;;;;9.90;8.60;;;;;;;17.24;83.80;100145.02;84738;1330;22668;-71
2022/08/22 01:11:27;;;;;;;10.60;8.20;;;;;;;17.24;83.72;100145.73;84686;1331;22612;-72
2022/08/22 01:13:55;;;;;;;10.10;8.90;;;;;;;17.22;83.83;100147.05;84705;1324;22609;-71
2022/08/22 01:16:13;;;;;;;15.50;8.70;;;;;;;17.23;83.98;100144.36;84701;1328;24239;-69
2022/08/22 01:18:49;;;;;;;17.40;9.20;;;;;;;17.28;84.28;100144.05;84700;1331;25260;-70
2022/08/22 01:21:55;;;;;;;14.10;8.50;;;;;;;17.31;84.29;100142.43;84694;1330;24236;-70
2022/08/22 01:28:01;;;;;;;9.80;8.90;;;;;;;17.35;84.54;100142.14;84668;1331;22624;-70
2022/08/22 01:30:44;;;;;;;10.10;9.10;;;;;;;17.37;84.58;100146.61;84533;1332;22620;-70
2022/08/22 01:33:36;;;;;;;9.90;8.90;;;;;;;17.41;84.58;100153.23;84685;1329;23965;-70
2022/08/22 01:36:43;;;;;;;15.00;9.60;;;;;;;17.40;84.42;100155.58;84669;1332;22615;-73
2022/08/22 01:39:16;;;;;;;11.40;8.50;;;;;;;17.40;84.47;100150.79;84704;1329;22736;-71
2022/08/22 01:41:40;;;;;;;13.30;8.90;;;;;;;17.43;84.40;100150.23;84686;1330;23975;-71
2022/08/22 01:44:04;;;;;;;9.60;8.50;;;;;;;17.42;84.28;100148.86;84702;1331;22609;-70
2022/08/22 01:46:33;;;;;;;10.20;8.50;;;;;;;17.43;84.36;100149.89;84685;1332;25628;-69
2022/08/22 01:48:46;;;;;;;11.40;9.20;;;;;;;17.41;84.18;100153.52;84695;1329;22938;-70
2022/08/22 01:50:57;;;;;;;15.80;9.50;;;;;;;17.39;84.21;100154.20;84700;1330;22598;-71
2022/08/22 01:53:10;;;;;;;11.00;8.40;;;;;;;17.39;84.22;100152.10;84682;1330;22644;-71
2022/08/22 01:55:41;;;;;;;12.50;8.70;;;;;;;17.39;84.21;100150.32;84739;1327;24004;-70
2022/08/22 01:57:55;;;;;;;10.00;8.60;;;;;;;17.40;84.42;100150.30;84701;1330;22599;-69
2022/08/22 02:00:09;;;;;;;8.60;7.70;;;;;;;17.40;84.42;100145.19;84676;1330;22577;-71
2022/08/22 02:02:40;;;;;;;10.00;8.20;;;;;;;17.38;84.24;100143.69;84707;1328;22608;-71
2022/08/22 02:04:55;;;;;;;9.40;8.50;;;;;;;17.36;84.29;100139.95;84729;1331;26650;-69
2022/08/22 02:07:08;;;;;;;9.80;8.60;;;;;;;17.35;84.08;100139.68;84697;1330;22621;-69
2022/08/22 02:09:29;;;;;;;10.30;8.50;;;;;;;17.34;84.17;100142.77;84689;1331;22632;-70
2022/08/22 02:11:47;;;;;;;9.10;8.00;;;;;;;17.32;84.43;100142.00;84692;1330;24302;-70
2022/08/22 02:14:00;;;;;;;11.30;8.90;;;;;;;17.31;84.23;100145.46;84689;1329;22851;-71
2022/08/22 02:16:14;;;;;;;9.30;8.30;;;;;;;17.30;84.26;100146.75;84686;1330;25591;-71
2022/08/22 02:18:26;;;;;;;9.40;7.90;;;;;;;17.31;84.42;100145.48;84706;1331;22896;-71
2022/08/22 02:20:38;;;;;;;9.60;8.70;;;;;;;17.30;84.43;100149.02;84714;1330;23933;-70
2022/08/22 02:22:57;;;;;;;9.80;8.50;;;;;;;17.27;84.46;100147.25;84686;1330;24181;-70
2022/08/22 02:25:13;;;;;;;10.80;8.70;;;;;;;17.26;84.65;100146.27;84683;1327;24399;-71
2022/08/22 02:27:32;;;;;;;14.40;8.90;;;;;;;17.26;84.40;100148.45;84693;1328;24120;-71
2022/08/22 02:29:45;;;;;;;12.10;8.30;;;;;;;17.23;84.41;100145.25;84707;1325;22591;-70
2022/08/22 02:31:58;;;;;;;9.90;8.30;;;;;;;17.23;84.45;100145.79;84719;1329;22655;-72
2022/08/22 02:34:24;;;;;;;11.60;9.10;;;;;;;17.22;84.48;100146.05;84709;1329;22595;-71
2022/08/22 02:36:46;;;;;;;9.80;8.30;;;;;;;17.18;84.62;100144.72;84689;1332;22709;-70
2022/08/22 02:39:04;;;;;;;9.90;9.00;;;;;;;17.16;84.72;100145.95;84691;1332;22590;-71
2022/08/22 02:41:19;;;;;;;8.30;7.40;;;;;;;17.15;84.87;100147.41;84667;1329;22843;-71
2022/08/22 02:43:35;;;;;;;12.90;9.90;;;;;;;17.12;84.67;100146.55;84685;1332;22656;-71
2022/08/22 02:45:48;;;;;;;11.30;8.60;;;;;;;17.11;84.95;100150.52;84694;1329;22648;-70
2022/08/22 02:48:04;;;;;;;9.20;8.10;;;;;;;17.11;85.06;100146.81;84680;1330;23968;-70
2022/08/22 02:50:22;;;;;;;11.00;9.10;;;;;;;17.12;85.12;100145.69;84735;1331;24180;-70
2022/08/22 02:52:39;;;;;;;11.60;7.70;;;;;;;17.14;85.24;100147.84;84679;1331;23050;-70
2022/08/22 02:54:55;;;;;;;9.60;8.00;;;;;;;17.14;85.29;100147.48;84685;1324;22597;-70
2022/08/22 02:57:08;;;;;;;11.80;8.30;;;;;;;17.15;85.51;100148.49;84663;1330;22743;-70
2022/08/22 02:59:33;;;;;;;9.10;8.20;;;;;;;17.16;85.58;100147.68;84707;1330;22639;-70
2022/08/22 03:01:45;;;;;;;9.20;8.30;;;;;;;17.18;85.54;100149.49;84705;1327;22713;-69
2022/08/22 03:04:14;;;;;;;9.20;7.90;;;;;;;17.20;85.63;100150.41;84710;1331;22604;-72
2022/08/22 03:06:39;;;;;;;9.00;7.90;;;;;;;17.23;85.85;100155.48;84680;1328;23967;-72
2022/08/22 03:09:08;;;;;;;9.60;8.70;;;;;;;17.26;85.83;100158.30;84738;1332;23985;-70
2022/08/22 03:11:21;;;;;;;10.50;8.80;;;;;;;17.27;85.80;100158.19;84688;1331;22686;-70
2022/08/22 03:13:40;;;;;;;9.90;7.70;;;;;;;17.28;86.01;100164.14;84718;1325;23422;-70
2022/08/22 03:15:53;;;;;;;10.40;7.80;;;;;;;17.30;86.21;100166.70;84652;1332;22646;-70
2022/08/22 03:18:06;;;;;;;10.00;8.00;;;;;;;17.31;86.25;100172.39;84703;1329;22608;-70
2022/08/22 03:20:19;;;;;;;9.30;8.30;;;;;;;17.34;86.40;100171.30;84709;1329;22828;-70
2022/08/22 03:22:36;;;;;;;9.00;8.10;;;;;;;17.40;86.46;100169.48;84694;1332;24310;-69
2022/08/22 03:24:50;;;;;;;15.10;8.10;;;;;;;17.46;86.31;100167.86;84741;1326;24218;-69
2022/08/22 03:27:04;;;;;;;10.90;9.00;;;;;;;17.50;86.35;100166.48;84696;1330;25441;-68
2022/08/22 03:29:16;;;;;;;10.60;9.20;;;;;;;17.54;86.25;100165.65;84721;1326;22666;-69
2022/08/22 03:31:27;;;;;;;15.80;9.50;;;;;;;17.56;86.15;100163.80;84705;1331;22600;-70
2022/08/22 03:33:36;;;;;;;16.20;9.00;;;;;;;17.59;86.18;100165.52;84706;1329;22842;-70
2022/08/22 03:36:09;;;;;;;10.90;8.60;;;;;;;17.61;86.32;100170.48;84694;1328;25299;-70
2022/08/22 03:38:26;;;;;;;16.70;9.40;;;;;;;17.63;86.11;100172.10;84714;1325;22595;-70
2022/08/22 03:40:49;;;;;;;27.10;10.40;;;;;;;17.66;86.17;100176.52;84309;1330;581082;-70
2022/08/22 03:43:23;;;;;;;25.10;10.70;;;;;;;17.67;86.05;100176.05;84682;1330;22794;-70
2022/08/22 03:46:08;;;;;;;24.90;10.40;;;;;;;17.72;86.03;100175.52;84699;1330;22586;-71
2022/08/22 03:48:49;;;;;;;21.10;10.30;;;;;;;17.77;85.97;100170.94;84655;1329;22756;-71
2022/08/22 03:51:16;;;;;;;55.10;12.10;;;;;;;17.83;85.88;100173.05;84688;1332;22824;-71
2022/08/22 03:53:53;;;;;;;39.10;13.00;;;;;;;17.86;85.84;100172.63;84707;1325;22864;-71
2022/08/22 03:56:54;;;;;;;47.00;13.40;;;;;;;17.89;85.69;100169.95;84697;1329;22827;-69
2022/08/22 03:59:39;;;;;;;55.20;12.50;;;;;;;17.93;85.60;100167.67;84679;1330;22580;-69
2022/08/22 04:02:05;;;;;;;19.50;9.80;;;;;;;17.97;85.42;100169.35;84580;1328;25428;-68
2022/08/22 04:04:51;;;;;;;16.90;9.20;;;;;;;17.99;85.33;100169.05;84676;1330;22586;-71
2022/08/22 04:07:19;;;;;;;11.10;8.40;;;;;;;18.03;85.38;100172.61;84672;1332;24308;-71
2022/08/22 04:10:08;;;;;;;12.30;8.20;;;;;;;18.09;85.20;100178.03;84727;1329;22851;-69
2022/08/22 04:12:49;;;;;;;16.70;9.10;;;;;;;18.15;85.10;100181.80;84674;1328;22594;-69
2022/08/22 04:15:34;;;;;;;17.20;9.20;;;;;;;18.22;84.96;100183.64;84689;1332;22587;-70
2022/08/22 04:18:15;;;;;;;36.10;11.90;;;;;;;18.28;84.87;100178.77;84530;1332;22624;-71
2022/08/22 04:21:18;;;;;;;49.30;12.50;;;;;;;18.36;84.81;100186.17;84666;1332;22703;-69
2022/08/22 04:24:00;;;;;;;49.30;14.30;;;;;;;18.44;84.65;100193.27;84605;1329;23911;-71
2022/08/22 04:26:10;;;;;;;38.20;12.70;;;;;;;18.56;84.39;100200.90;84671;1332;22591;-70
2022/08/22 04:28:25;;;;;;;25.60;10.20;;;;;;;18.63;84.06;100200.19;84690;1331;24137;-70
2022/08/22 04:30:38;;;;;;;22.60;10.00;;;;;;;18.68;83.61;100205.16;84701;1327;24299;-71
2022/08/22 04:32:50;;;;;;;17.40;8.60;;;;;;;18.74;83.59;100203.16;84694;1328;23916;-71
2022/08/22 04:35:01;;;;;;;21.60;10.00;;;;;;;18.81;83.49;100202.24;84735;1330;22600;-69
2022/08/22 04:37:13;;;;;;;20.10;9.80;;;;;;;18.90;83.42;100202.62;84665;1331;22770;-69
2022/08/22 04:39:24;;;;;;;32.00;10.50;;;;;;;19.08;83.68;100197.90;84725;1330;22608;-70
2022/08/22 04:41:41;;;;;;;58.10;12.40;;;;;;;19.61;84.14;100195.78;84698;1330;23826;-69
2022/08/22 04:43:53;;;;;;;29.00;11.80;;;;;;;20.31;83.50;100190.14;84685;1329;23962;-71
2022/08/22 04:46:06;;;;;;;32.20;10.20;;;;;;;20.92;81.28;100195.75;84695;1329;22804;-70
2022/08/22 04:48:20;;;;;;;57.00;13.60;;;;;;;21.54;79.58;100196.90;84690;1324;22591;-70
2022/08/22 04:50:35;;;;;;;63.40;13.90;;;;;;;22.15;77.60;100201.70;84701;1321;22765;-69
2022/08/22 04:53:01;;;;;;;43.50;12.10;;;;;;;22.68;75.20;100206.67;84682;1327;24097;-69
2022/08/22 04:55:18;;;;;;;45.00;11.40;;;;;;;23.14;72.59;100205.48;84711;1329;22660;-71
2022/08/22 04:57:35;;;;;;;40.90;11.60;;;;;;;23.52;71.34;100208.08;84687;1330;22642;-71
2022/08/22 04:59:44;;;;;;;30.20;11.80;;;;;;;23.93;69.80;100209.41;84694;1327;25338;-71
2022/08/22 05:01:58;;;;;;;55.70;11.30;;;;;;;24.09;68.15;100209.13;84679;1329;22714;-72
2022/08/22 05:04:11;;;;;;;26.40;10.40;;;;;;;24.08;66.53;100210.63;84716;1329;23908;-70
2022/08/22 05:06:21;;;;;;;23.80;9.20;;;;;;;23.82;65.88;100212.07;84644;1329;25256;-70
2022/08/22 05:08:32;;;;;;;48.00;13.40;;;;;;;23.55;65.81;100209.65;84685;1326;22814;-70
2022/08/22 05:10:45;;;;;;;32.00;10.90;;;;;;;23.28;65.73;100206.25;84720;1329;26531;-71
2022/08/22 05:12:59;;;;;;;35.10;10.80;;;;;;;23.03;65.96;100203.83;84691;1327;22616;-71
2022/08/22 05:15:14;;;;;;;39.30;15.40;;;;;;;22.81;66.42;100207.44;84737;1330;22726;-70
2022/08/22 05:17:26;;;;;;;43.30;14.50;;;;;;;22.65;66.78;100215.85;84691;1332;22633;-71
2022/08/22 05:19:36;;;;;;;57.90;13.20;;;;;;;22.48;66.63;100215.45;84732;1328;25354;-70
2022/08/22 05:21:46;;;;;;;47.00;14.40;;;;;;;22.35;67.18;100214.14;84694;1329;22574;-69
2022/08/22 05:23:57;;;;;;;27.10;12.50;;;;;;;22.24;67.37;100216.31;84725;1330;22591;-71
2022/08/22 05:26:07;;;;;;;44.80;14.40;;;;;;;22.20;67.79;100216.70;84701;1329;22796;-72
2022/08/22 05:28:22;;;;;;;34.90;12.40;;;;;;;22.16;67.84;100218.47;84688;1331;23966;-71
2022/08/22 05:30:31;;;;;;;32.90;12.00;;;;;;;22.23;68.20;100215.94;84688;1332;22624;-70
2022/08/22 05:32:52;;;;;;;60.40;14.30;;;;;;;22.50;68.39;100224.14;84703;1327;22643;-70
2022/08/22 05:35:02;;;;;;;49.90;13.70;;;;;;;22.71;67.66;100228.47;84721;1330;22652;-70
2022/08/22 05:37:13;;;;;;;73.40;16.10;;;;;;;22.87;67.23;100222.95;84683;1331;22856;-69
2022/08/22 05:39:23;;;;;;;16.70;9.10;;;;;;;23.19;66.31;100219.95;84709;1328;25468;-69
2022/08/22 05:41:36;;;;;;;23.30;8.20;;;;;;;23.59;66.46;100225.44;84695;1327;22693;-70
2022/08/22 05:43:46;;;;;;;27.00;9.70;;;;;;;24.27;66.83;100225.46;84713;1330;22594;-70
2022/08/22 05:45:55;;;;;;;27.80;9.90;;;;;;;25.24;66.29;100223.31;84672;1330;22589;-70
2022/08/22 05:48:05;;;;;;;;;;;;;;;26.23;62.65;100226.05;84669;1324;22656;-69
2022/08/22 05:50:17;;;;;;;28.20;9.50;;;;;;;26.97;60.74;100223.73;84741;1328;22580;-70
2022/08/22 05:52:44;;;;;;;15.90;8.00;;;;;;;27.71;57.82;100223.89;84705;1328;22579;-70
2022/08/22 05:54:56;;;;;;;14.20;6.60;;;;;;;28.35;55.42;100220.40;84723;1328;22592;-72
2022/08/22 05:57:25;;;;;;;24.10;9.00;;;;;;;28.90;53.67;100221.48;84696;1329;24366;-72
2022/08/22 05:59:35;;;;;;;22.40;10.20;;;;;;;29.47;51.73;100219.86;84717;1330;22692;-71
2022/08/22 06:01:50;;;;;;;25.20;8.60;;;;;;;29.87;50.45;100219.05;84695;1330;22854;-71
2022/08/22 06:04:25;;;;;;;22.00;8.90;;;;;;;30.40;49.05;100218.55;84696;1328;25243;-71
2022/08/22 06:06:37;;;;;;;20.00;7.40;;;;;;;31.06;47.76;100215.95;84688;1327;22584;-71
2022/08/22 06:08:49;;;;;;;20.60;8.30;;;;;;;31.51;45.39;100214.34;84694;1327;22580;-71
2022/08/22 06:10:59;;;;;;;20.70;7.00;;;;;;;31.78;44.59;100208.95;84650;1325;22687;-72
2022/08/22 06:13:13;;;;;;;16.80;6.60;;;;;;;32.11;43.53;100208.69;84685;1324;22599;-71
2022/08/22 06:15:26;;;;;;;13.40;6.70;;;;;;;32.35;42.14;100208.98;84690;1332;22590;-70
2022/08/22 06:17:37;;;;;;;11.20;5.90;;;;;;;32.45;41.94;100210.66;84696;1328;22638;-70
2022/08/22 06:19:55;;;;;;;14.70;7.40;;;;;;;32.71;40.74;100209.88;84696;1328;22626;-71
2022/08/22 06:22:04;;;;;;;32.50;8.50;;;;;;;33.02;41.18;100211.46;84687;1330;22617;-70
2022/08/22 06:24:17;;;;;;;29.30;7.10;;;;;;;33.49;40.62;100209.21;84682;1330;24397;-72
2022/08/22 06:26:28;;;;;;;18.00;6.10;;;;;;;34.00;39.32;100210.10;84696;1327;22646;-72
2022/08/22 06:28:39;;;;;;;27.50;7.80;;;;;;;34.24;38.16;100213.63;84680;1329;22599;-71
2022/08/22 06:30:48;;;;;;;20.10;6.80;;;;;;;34.35;37.29;100213.65;84684;1329;22921;-70
2022/08/22 06:32:58;;;;;;;21.60;7.10;;;;;;;34.50;37.44;100215.81;84683;1328;22595;-69
2022/08/22 06:35:11;;;;;;;21.10;6.50;;;;;;;34.78;36.98;100215.66;84746;1328;22609;-71
2022/08/22 06:37:23;;;;;;;14.60;5.40;;;;;;;35.02;35.68;100214.58;84664;1328;23989;-71
2022/08/22 06:39:33;;;;;;;10.10;6.10;;;;;;;34.83;35.37;100212.70;84700;1330;22680;-71
2022/08/22 06:41:44;;;;;;;30.20;7.00;;;;;;;34.62;35.09;100215.79;84686;1324;22775;-71
2022/08/22 06:43:53;;;;;;;38.00;7.40;;;;;;;34.42;35.52;100215.64;84672;1329;25304;-70
2022/08/22 06:46:02;;;;;;;21.70;6.40;;;;;;;34.38;35.67;100221.58;84674;1330;23963;-70
2022/08/22 06:48:19;;;;;;;20.80;7.20;;;;;;;34.50;35.83;100222.17;84666;1328;22761;-70
2022/08/22 06:50:32;;;;;;;21.40;6.80;;;;;;;34.54;35.35;100227.91;84712;1328;22606;-72
2022/08/22 06:52:56;;;;;;;15.70;5.70;;;;;;;34.34;35.90;100235.52;84687;1325;22704;-72
2022/08/22 06:55:09;;;;;;;13.50;6.10;;;;;;;34.08;35.67;100231.13;84685;1328;25319;-72
2022/08/22 06:57:30;;;;;;;12.50;5.30;;;;;;;33.78;36.21;100230.36;84698;1328;22580;-73
2022/08/22 06:59:39;;;;;;;8.30;5.30;;;;;;;33.33;36.02;100231.18;84719;1328;22614;-70
2022/08/22 07:01:53;;;;;;;9.20;5.70;;;;;;;32.85;37.15;100231.73;84680;1330;22583;-70
2022/08/22 07:04:07;;;;;;;13.40;5.70;;;;;;;32.57;37.29;100233.98;84706;1327;22630;-71
2022/08/22 07:06:21;;;;;;;11.70;4.90;;;;;;;32.08;37.96;100229.45;84667;1331;24260;-71
2022/08/22 07:08:32;;;;;;;15.80;5.50;;;;;;;31.63;38.68;100233.98;84702;1329;22955;-71
2022/08/22 07:10:43;;;;;;;13.70;6.00;;;;;;;31.18;39.29;100234.61;84713;1328;22944;-71
2022/08/22 07:12:54;;;;;;;18.00;5.60;;;;;;;30.84;40.56;100238.90;84685;1328;22600;-71
2022/08/22 07:15:12;;;;;;;17.00;6.50;;;;;;;30.80;41.15;100237.21;84698;1330;22615;-71
2022/08/22 07:17:24;;;;;;;8.10;5.40;;;;;;;30.89;40.86;100234.20;84690;1328;22610;-72
2022/08/22 07:19:35;;;;;;;8.10;5.30;;;;;;;31.12;41.56;100233.45;84702;1330;25497;-71
2022/08/22 07:21:47;;;;;;;14.70;6.10;;;;;;;31.74;41.06;100227.94;84691;1328;22600;-71
2022/08/22 07:23:56;;;;;;;19.10;5.70;;;;;;;32.17;39.12;100227.77;84662;1331;22580;-71
2022/08/22 07:26:17;;;;;;;11.40;6.10;;;;;;;32.37;38.54;100230.98;84679;1327;22666;-71
2022/08/22 07:28:32;;;;;;;14.10;5.40;;;;;;;32.47;38.53;100230.62;84684;1329;22614;-71
2022/08/22 07:30:53;;;;;;;12.00;5.10;;;;;;;32.72;37.73;100234.00;84694;1329;22618;-71
2022/08/22 07:33:05;;;;;;;11.90;5.70;;;;;;;32.91;37.40;100238.14;84683;1324;22816;-71
2022/08/22 07:35:15;;;;;;;14.30;6.10;;;;;;;33.06;37.33;100237.91;84716;1330;22849;-71
2022/08/22 07:37:32;;;;;;;13.10;6.40;;;;;;;33.22;37.29;100234.44;84695;1328;24264;-71
2022/08/22 07:39:44;;;;;;;11.50;5.50;;;;;;;33.10;37.27;100233.98;84692;1330;22710;-71
2022/08/22 07:42:10;;;;;;;10.50;4.90;;;;;;;32.97;37.47;100234.41;84654;1327;22602;-71
2022/08/22 07:44:21;;;;;;;13.60;5.50;;;;;;;33.11;37.67;100232.73;84679;1324;22612;-71
2022/08/22 07:46:33;;;;;;;11.10;5.20;;;;;;;33.32;37.28;100237.17;84676;1330;22609;-71
2022/08/22 07:48:45;;;;;;;12.50;5.60;;;;;;;33.43;37.06;100239.63;84696;1329;22679;-71
2022/08/22 07:51:03;;;;;;;12.70;5.60;;;;;;;33.52;37.25;100244.25;84698;1325;22592;-71
2022/08/22 07:53:18;;;;;;;15.30;6.10;;;;;;;33.99;36.84;100246.06;84713;1328;22598;-71
2022/08/22 07:55:29;;;;;;;12.20;5.60;;;;;;;34.58;36.22;100250.12;84703;1327;22589;-72
2022/08/22 07:57:39;;;;;;;11.50;5.60;;;;;;;35.04;35.58;100256.61;84665;1328;22942;-71
2022/08/22 07:59:51;;;;;;;9.30;5.30;;;;;;;35.46;34.14;100257.61;84664;1329;22600;-71
2022/08/22 08:02:01;;;;;;;13.00;6.00;;;;;;;35.61;33.85;100252.32;84689;1321;22659;-72
2022/08/22 08:04:14;;;;;;;13.10;6.50;;;;;;;35.83;33.76;100252.29;84690;1327;22811;-72
2022/08/22 08:06:23;;;;;;;17.20;6.00;;;;;;;35.97;33.00;100250.78;84672;1328;22580;-71
2022/08/22 08:08:36;;;;;;;21.50;6.30;;;;;;;35.96;32.57;100246.05;84665;1329;22747;-71
2022/08/22 08:10:44;;;;;;;27.20;6.70;;;;;;;36.00;32.76;100245.51;84678;1328;22605;-71
2022/08/22 08:12:55;;;;;;;15.10;5.80;;;;;;;36.29;33.13;100247.65;84693;1330;25307;-71
2022/08/22 08:15:05;;;;;;;19.50;6.50;;;;;;;36.68;32.30;100246.92;84714;1332;22600;-71
2022/08/22 08:17:19;;;;;;;11.20;5.90;;;;;;;36.98;31.86;100244.77;84685;1330;22697;-71
2022/08/22 08:19:27;;;;;;;25.60;6.30;;;;;;;37.26;31.03;100244.75;84689;1327;23955;-71
2022/08/22 08:21:38;;;;;;;18.10;6.90;;;;;;;37.35;31.09;100238.81;84705;1329;24278;-71
2022/08/22 08:23:48;;;;;;;11.80;6.00;;;;;;;37.51;31.49;100243.17;84709;1326;22902;-72
2022/08/22 08:26:03;;;;;;;13.70;5.90;;;;;;;37.73;30.22;100244.94;84664;1330;22606;-72
2022/08/22 08:30:42;;;;;;;15.60;6.40;;;;;;;37.65;29.61;100241.52;84695;1329;22594;-72
2022/08/22 08:32:56;;;;;;;9.00;6.00;;;;;;;37.74;30.07;100241.50;84657;1330;22872;-72
2022/08/22 08:35:19;;;;;;;22.90;6.80;;;;;;;37.82;29.73;100244.85;84709;1329;25320;-71
2022/08/22 08:37:30;;;;;;;13.70;5.70;;;;;;;38.03;30.06;100243.34;84644;1331;22876;-71
2022/08/22 08:39:41;;;;;;;16.60;6.50;;;;;;;38.36;29.42;100245.45;84708;1330;22671;-72
2022/08/22 08:42:14;;;;;;;28.10;7.50;;;;;;;38.59;29.31;100245.94;84693;1330;22969;-72
2022/08/22 08:44:36;;;;;;;22.40;6.80;;;;;;;39.01;28.99;100248.55;84520;1332;25458;-71
2022/08/22 08:47:02;;;;;;;20.30;6.70;;;;;;;39.00;28.18;100249.58;84663;1327;26653;-71
2022/08/22 08:49:41;;;;;;;13.20;6.30;;;;;;;38.70;27.76;100248.39;84689;1329;22587;-72
2022/08/22 08:52:09;;;;;;;21.50;7.40;;;;;;;37.93;28.38;100238.27;84675;1330;22867;-72
2022/08/22 08:54:31;;;;;;;27.70;8.00;;;;;;;37.69;29.21;100237.41;84702;1325;24328;-72
2022/08/22 08:56:47;;;;;;;12.00;5.80;;;;;;;37.76;29.43;100237.45;84662;1328;24067;-72
2022/08/22 08:59:07;;;;;;;15.40;5.70;;;;;;;38.09;28.87;100243.77;84693;1332;22676;-72
2022/08/22 09:01:33;;;;;;;34.40;7.60;;;;;;;37.78;28.32;100242.02;84658;1328;22797;-72
2022/08/22 09:04:21;;;;;;;19.00;6.00;;;;;;;36.88;29.51;100240.20;84686;1327;23969;-72
2022/08/22 09:06:54;;;;;;;24.50;7.10;;;;;;;35.81;30.48;100243.35;84503;1328;24003;-72
2022/08/22 09:09:10;;;;;;;27.40;7.30;;;;;;;35.20;31.81;100245.06;84719;1328;22856;-72
2022/08/22 09:12:00;;;;;;;12.20;5.50;;;;;;;34.83;31.85;100243.77;84679;1330;22856;-72
2022/08/22 09:14:20;;;;;;;13.30;6.10;;;;;;;33.95;32.80;100242.14;84713;1330;24253;-71
2022/08/22 09:16:44;;;;;;;17.10;6.00;;;;;;;33.34;33.88;100237.48;84685;1330;25437;-71
2022/08/22 09:19:32;;;;;;;28.00;7.10;;;;;;;33.02;34.98;100239.03;84698;1330;22832;-72
2022/08/22 09:22:05;;;;;;;28.70;6.60;;;;;;;32.66;35.62;100238.11;84698;1326;22592;-71
2022/08/22 09:25:02;;;;;;;16.20;5.50;;;;;;;32.30;36.52;100236.50;84701;1331;22966;-71
2022/08/22 09:27:13;;;;;;;10.50;5.00;;;;;;;32.20;37.01;100240.71;84692;1328;22643;-71
2022/08/22 09:29:41;;;;;;;13.40;5.50;;;;;;;32.63;37.06;100242.24;84749;1328;22603;-71
2022/08/22 09:31:56;;;;;;;17.60;6.50;;;;;;;33.32;37.03;100237.48;84681;1328;22809;-71
2022/08/22 09:34:11;;;;;;;15.90;6.00;;;;;;;33.76;35.79;100234.14;84733;1328;22612;-71
2022/08/22 09:36:24;;;;;;;12.70;5.50;;;;;;;34.16;35.96;100233.55;84696;1330;25622;-72
2022/08/22 09:38:44;;;;;;;20.40;6.70;;;;;;;34.39;35.22;100233.70;84702;1330;25276;-72
2022/08/22 09:40:55;;;;;;;32.50;6.50;;;;;;;34.33;34.36;100233.93;84666;1328;22613;-72
2022/08/22 09:43:07;;;;;;;31.50;7.60;;;;;;;33.90;34.19;100231.64;84709;1324;22634;-72
2022/08/22 09:45:47;;;;;;;21.10;6.00;;;;;;;33.58;35.06;100223.95;84684;1330;22992;-72
2022/08/22 09:48:00;;;;;;;21.50;7.80;;;;;;;33.62;35.62;100225.30;84690;1332;23578;-72
2022/08/22 09:50:12;;;;;;;31.80;7.20;;;;;;;33.59;34.85;100226.87;84672;1332;22707;-71
2022/08/22 09:52:40;;;;;;;27.60;5.90;;;;;;;33.46;34.84;100220.55;84640;1329;22688;-71
2022/08/22 09:54:50;;;;;;;14.00;4.90;;;;;;;33.41;35.09;100221.79;84671;1327;22667;-71
2022/08/22 09:57:25;;;;;;;7.20;4.40;;;;;;;33.29;35.29;100222.63;84678;1324;22610;-71
2022/08/22 09:59:46;;;;;;;11.30;4.80;;;;;;;33.12;34.98;100218.42;84703;1328;22611;-72
2022/08/22 10:01:58;;;;;;;7.60;4.50;;;;;;;32.67;35.33;100221.96;84663;1327;24127;-72
2022/08/22 10:04:46;;;;;;;14.80;4.70;;;;;;;32.36;36.07;100218.61;84697;1328;22600;-71
2022/08/22 10:07:01;;;;;;;19.40;6.10;;;;;;;32.33;36.54;100218.85;84671;1324;22700;-72
2022/08/22 10:09:12;;;;;;;28.40;7.20;;;;;;;32.35;36.30;100217.95;84698;1321;22589;-72
2022/08/22 10:11:30;;;;;;;29.10;6.70;;;;;;;32.28;36.67;100220.83;84665;1330;22604;-72
2022/08/22 10:13:49;;;;;;;16.20;4.60;;;;;;;32.08;36.75;100217.38;84699;1325;22640;-72
2022/08/22 10:16:00;;;;;;;12.10;4.40;;;;;;;31.74;37.69;100217.70;84674;1328;22627;-72
2022/08/22 10:18:18;;;;;;;8.40;4.90;;;;;;;31.36;38.01;100218.95;84668;1328;22619;-72
2022/08/22 10:20:30;;;;;;;9.90;3.80;;;;;;;31.03;37.97;100225.77;84677;1327;23888;-71
2022/08/22 10:22:44;;;;;;;8.80;4.60;;;;;;;30.76;38.22;100225.90;84701;1330;22831;-71
2022/08/22 10:24:59;;;;;;;9.80;4.40;;;;;;;30.60;38.60;100228.16;84697;1327;22669;-71
2022/08/22 10:27:13;;;;;;;17.50;4.60;;;;;;;30.51;38.77;100229.50;84691;1330;22773;-71
2022/08/22 10:29:49;;;;;;;12.20;4.80;;;;;;;30.37;39.45;100232.52;84720;1327;22615;-71
2022/08/22 10:32:02;;;;;;;15.60;5.10;;;;;;;30.18;39.61;100232.92;84692;1330;26107;-71
2022/08/22 10:34:15;;;;;;;66.90;12.00;;;;;;;30.02;40.24;100232.52;84699;1329;22921;-71
2022/08/22 10:36:27;;;;;;;36.50;7.20;;;;;;;29.89;40.07;100233.77;84715;1329;22792;-72
2022/08/22 10:38:40;;;;;;;32.60;8.40;;;;;;;29.75;40.41;100233.38;84701;1328;24306;-72
2022/08/22 10:40:54;;;;;;;19.80;5.40;;;;;;;29.59;40.75;100233.23;84678;1325;22600;-71
2022/08/22 10:43:06;;;;;;;18.30;5.40;;;;;;;29.50;40.85;100232.56;84713;1328;22625;-71
2022/08/22 10:45:26;;;;;;;19.70;5.20;;;;;;;29.37;41.10;100230.83;84723;1331;22583;-72